createdAt,value
2023-05-19T00:01:18.593Z,76.71
2023-05-19T00:03:53.854Z,77.01
2023-05-19T00:06:26.834Z,76.90
2023-05-19T00:09:01.215Z,76.92
2023-05-19T00:11:29.082Z,77.21
2023-05-19T00:13:57.126Z,77.12
2023-05-19T00:16:25.593Z,77.40
2023-05-19T00:18:53.312Z,77.38
2023-05-19T00:21:20.654Z,77.10
2023-05-19T00:23:47.269Z,77.64
2023-05-19T00:26:13.835Z,77.56
2023-05-19T00:28:40.477Z,77.48
2023-05-19T00:31:07.305Z,77.96
2023-05-19T00:33:34.169Z,78.03
2023-05-19T00:36:04.423Z,77.88
2023-05-19T00:38:32.180Z,78.08
2023-05-19T00:40:59.780Z,77.99
2023-05-19T00:43:26.758Z,77.88
2023-05-19T00:45:53.604Z,78.69
2023-05-19T00:48:20.879Z,78.18
2023-05-19T00:50:48.660Z,78.46
2023-05-19T00:53:18.080Z,78.31
2023-05-19T00:55:46.290Z,78.10
2023-05-19T00:58:13.941Z,78.01
2023-05-19T01:00:40.628Z,78.41
2023-05-19T01:03:13.481Z,78.16
2023-05-19T01:05:42.282Z,78.67
2023-05-19T01:08:09.211Z,78.06
2023-05-19T01:10:35.915Z,78.24
2023-05-19T01:13:06.661Z,78.23
2023-05-19T01:16:02.511Z,78.09
2023-05-19T01:18:58.113Z,77.68
2023-05-19T01:21:48.764Z,77.56
2023-05-19T01:24:34.202Z,78.00
2023-05-19T01:27:36.114Z,77.57
2023-05-19T01:30:34.103Z,77.65
2023-05-19T01:33:04.490Z,77.64
2023-05-19T01:35:33.419Z,77.86
2023-05-19T01:38:01.661Z,78.36
2023-05-19T01:40:29.298Z,77.92
2023-05-19T01:42:58.228Z,78.59
2023-05-19T01:45:27.388Z,78.24
2023-05-19T01:47:56.194Z,78.82
2023-05-19T01:50:23.265Z,78.16
2023-05-19T01:52:50.724Z,78.88
2023-05-19T01:55:17.709Z,79.08
2023-05-19T01:57:59.096Z,79.02
2023-05-19T02:01:03.505Z,78.77
2023-05-19T02:03:45.028Z,79.11
2023-05-19T02:06:46.587Z,78.63
2023-05-19T02:09:23.308Z,78.54
2023-05-19T02:11:59.385Z,79.05
2023-05-19T02:15:04.796Z,79.24
2023-05-19T02:17:41.615Z,78.75
2023-05-19T02:20:12.033Z,79.19
2023-05-19T02:22:38.709Z,78.81
2023-05-19T02:25:05.667Z,78.80
2023-05-19T02:27:32.285Z,78.84
2023-05-19T02:29:58.929Z,78.78
2023-05-19T02:32:25.554Z,78.98
2023-05-19T02:34:53.322Z,78.73
2023-05-19T02:37:23.782Z,79.55
2023-05-19T02:39:50.435Z,79.81
2023-05-19T02:42:19.621Z,79.14
2023-05-19T02:44:46.285Z,80.00
2023-05-19T02:47:13.498Z,79.94
2023-05-19T02:49:40.509Z,79.44
2023-05-19T02:52:07.357Z,79.58
2023-05-19T02:54:35.422Z,79.77
2023-05-19T02:57:02.310Z,79.68
2023-05-19T02:59:29.069Z,80.33
2023-05-19T03:01:57.535Z,79.76
2023-05-19T03:04:24.164Z,79.99
2023-05-19T03:06:50.809Z,80.38
2023-05-19T03:09:17.426Z,79.87
2023-05-19T03:11:44.009Z,79.65
2023-05-19T03:14:10.644Z,80.02
2023-05-19T03:16:37.299Z,79.74
2023-05-19T03:19:03.960Z,80.42
2023-05-19T03:21:32.069Z,79.75
2023-05-19T03:23:58.854Z,80.17
2023-05-19T03:26:25.407Z,79.91
2023-05-19T03:28:52.038Z,80.07
2023-05-19T03:31:18.794Z,80.21
2023-05-19T03:33:45.470Z,80.02
2023-05-19T03:36:12.707Z,80.03
2023-05-19T03:38:39.500Z,79.64
2023-05-19T03:41:06.065Z,79.47
2023-05-19T03:43:32.658Z,79.82
2023-05-19T03:45:59.318Z,79.63
2023-05-19T03:48:26.807Z,79.91
2023-05-19T03:50:54.313Z,79.62
2023-05-19T03:53:20.941Z,79.93
2023-05-19T03:55:49.702Z,79.69
2023-05-19T03:58:16.507Z,79.63
2023-05-19T04:00:43.234Z,79.41
2023-05-19T04:03:09.941Z,79.47
2023-05-19T04:05:36.714Z,79.57
2023-05-19T04:08:03.314Z,79.26
2023-05-19T04:10:30.177Z,79.75
2023-05-19T04:12:56.932Z,79.32
2023-05-19T04:15:23.581Z,79.60
2023-05-19T04:17:50.351Z,79.39
2023-05-19T04:20:17.023Z,79.92
2023-05-19T04:22:43.604Z,79.69
2023-05-19T04:25:10.405Z,79.69
2023-05-19T04:27:39.048Z,79.25
2023-05-19T04:30:06.690Z,79.89
2023-05-19T04:32:33.437Z,79.36
2023-05-19T04:35:00.018Z,79.54
2023-05-19T04:37:26.704Z,78.97
2023-05-19T04:39:54.291Z,79.17
2023-05-19T04:42:21.015Z,78.73
2023-05-19T04:44:49.310Z,78.49
2023-05-19T04:47:16.224Z,78.80
2023-05-19T04:49:43.066Z,78.40
2023-05-19T04:52:11.177Z,78.10
2023-05-19T04:54:38.965Z,78.02
2023-05-19T04:57:05.976Z,78.11
2023-05-19T04:59:33.183Z,78.07
2023-05-19T05:01:59.869Z,77.78
2023-05-19T05:04:26.487Z,77.65
2023-05-19T05:06:53.040Z,77.67
2023-05-19T05:09:20.220Z,77.53
2023-05-19T05:11:47.067Z,77.73
2023-05-19T05:14:13.925Z,77.52
2023-05-19T05:16:40.915Z,78.30
2023-05-19T05:19:07.927Z,78.00
2023-05-19T05:21:34.977Z,77.58
2023-05-19T05:24:01.845Z,77.68
2023-05-19T05:26:33.265Z,77.12
2023-05-19T05:28:59.966Z,76.97
2023-05-19T05:31:26.594Z,76.90
2023-05-19T05:33:53.429Z,77.30
2023-05-19T05:36:20.048Z,76.93
2023-05-19T05:38:46.819Z,76.91
2023-05-19T05:41:13.396Z,76.63
2023-05-19T05:43:39.981Z,76.66
2023-05-19T05:46:06.578Z,76.30
2023-05-19T05:48:33.594Z,76.55
2023-05-19T05:51:00.745Z,76.04
2023-05-19T05:53:30.989Z,76.46
2023-05-19T05:55:58.041Z,75.43
2023-05-19T05:58:24.671Z,74.90
2023-05-19T06:00:53.016Z,74.74
2023-05-19T06:03:22.047Z,73.86
2023-05-19T06:05:48.763Z,74.07
2023-05-19T06:08:15.388Z,74.14
2023-05-19T06:10:45.095Z,74.43
2023-05-19T06:13:13.127Z,73.85
2023-05-19T06:15:39.772Z,73.58
2023-05-19T06:18:06.437Z,72.90
2023-05-19T06:20:33.188Z,72.96
2023-05-19T06:23:01.378Z,73.29
2023-05-19T06:25:28.002Z,72.65
2023-05-19T06:27:54.702Z,72.09
2023-05-19T06:30:21.386Z,71.97
2023-05-19T06:32:48.025Z,72.80
2023-05-19T06:35:14.728Z,72.37
2023-05-19T06:37:41.574Z,72.05
2023-05-19T06:40:08.830Z,72.73
2023-05-19T06:42:35.401Z,72.21
2023-05-19T06:45:02.134Z,71.89
2023-05-19T06:47:28.815Z,72.04
2023-05-19T06:49:55.670Z,71.27
2023-05-19T06:52:23.002Z,70.80
2023-05-19T06:54:50.187Z,70.86
2023-05-19T06:57:17.022Z,70.83
2023-05-19T06:59:43.881Z,70.06
2023-05-19T07:02:11.048Z,69.68
2023-05-19T07:04:37.674Z,69.56
2023-05-19T07:07:04.486Z,69.14
2023-05-19T07:09:31.152Z,68.35
2023-05-19T07:11:57.796Z,67.73
2023-05-19T07:14:24.441Z,67.51
2023-05-19T07:16:51.117Z,66.66
2023-05-19T07:19:19.770Z,66.75
2023-05-19T07:21:47.043Z,66.75
2023-05-19T07:24:13.656Z,66.37
2023-05-19T07:26:40.536Z,66.16
2023-05-19T07:29:07.289Z,66.30
2023-05-19T07:31:34.001Z,65.83
2023-05-19T07:34:00.712Z,65.49
2023-05-19T07:36:27.350Z,65.24
2023-05-19T07:38:53.957Z,64.57
2023-05-19T07:41:21.576Z,63.82
2023-05-19T07:43:48.215Z,63.06
2023-05-19T07:46:14.856Z,62.71
2023-05-19T07:48:41.483Z,62.78
2023-05-19T07:51:10.250Z,61.91
2023-05-19T07:53:37.258Z,61.97
2023-05-19T07:56:04.760Z,61.27
2023-05-19T07:58:31.495Z,60.72
2023-05-19T08:00:59.278Z,61.30
2023-05-19T08:03:26.927Z,61.53
2023-05-19T08:05:53.633Z,61.34
2023-05-19T08:08:20.266Z,61.25
2023-05-19T08:10:46.893Z,60.81
2023-05-19T08:13:13.507Z,61.30
2023-05-19T08:15:40.150Z,61.34
2023-05-19T08:18:06.955Z,60.85
2023-05-19T08:20:34.193Z,59.70
2023-05-19T08:23:01.127Z,60.05
2023-05-19T08:25:27.665Z,59.24
2023-05-19T08:27:54.338Z,59.02
2023-05-19T08:30:20.963Z,59.45
2023-05-19T08:32:48.730Z,57.93
2023-05-19T08:35:15.674Z,58.58
2023-05-19T08:37:42.252Z,57.98
2023-05-19T08:40:15.963Z,58.19
2023-05-19T08:42:42.599Z,58.13
2023-05-19T08:45:09.549Z,57.53
2023-05-19T08:47:36.487Z,57.94
2023-05-19T08:50:07.999Z,57.66
2023-05-19T08:53:01.556Z,57.59
2023-05-19T08:55:31.068Z,57.22
2023-05-19T08:57:58.124Z,56.14
2023-05-19T09:00:25.630Z,55.09
2023-05-19T09:03:00.801Z,54.42
2023-05-19T09:05:39.276Z,54.33
2023-05-19T09:08:05.850Z,54.04
2023-05-19T09:10:32.424Z,54.18
2023-05-19T09:12:59.093Z,53.51
2023-05-19T09:15:28.354Z,53.35
2023-05-19T09:18:15.191Z,53.66
2023-05-19T09:20:47.362Z,53.61
2023-05-19T09:23:17.716Z,53.45
2023-05-19T09:25:48.180Z,54.04
2023-05-19T09:28:14.929Z,52.74
2023-05-19T09:30:41.504Z,53.30
2023-05-19T09:33:10.067Z,52.54
2023-05-19T09:35:37.238Z,53.26
2023-05-19T09:38:03.876Z,53.83
2023-05-19T09:40:32.193Z,53.67
2023-05-19T09:42:58.761Z,53.03
2023-05-19T09:45:27.254Z,53.65
2023-05-19T09:47:53.986Z,53.52
2023-05-19T09:50:20.601Z,53.80
2023-05-19T09:52:48.271Z,53.18
2023-05-19T09:55:15.571Z,53.26
2023-05-19T09:57:42.117Z,52.66
2023-05-19T10:00:13.698Z,52.77
2023-05-19T10:02:45.269Z,53.63
2023-05-19T10:05:17.728Z,54.23
2023-05-19T10:07:45.834Z,53.41
2023-05-19T10:10:14.119Z,52.50
2023-05-19T10:12:42.084Z,53.08
2023-05-19T10:15:13.300Z,54.22
2023-05-19T10:17:41.652Z,53.70
2023-05-19T10:20:12.725Z,53.48
2023-05-19T10:22:40.043Z,52.55
2023-05-19T10:25:08.095Z,51.84
2023-05-19T10:27:37.876Z,53.30
2023-05-19T10:30:12.437Z,53.42
2023-05-19T10:32:43.058Z,53.23
2023-05-19T10:35:18.678Z,53.80
2023-05-19T10:38:03.967Z,51.30
2023-05-19T10:40:38.966Z,52.64
2023-05-19T10:43:19.823Z,52.09
2023-05-19T10:45:49.373Z,52.93
2023-05-19T10:48:17.015Z,53.36
2023-05-19T10:50:45.901Z,54.83
2023-05-19T10:53:18.150Z,54.10
2023-05-19T10:55:47.678Z,53.41
2023-05-19T10:58:14.326Z,54.49
2023-05-19T11:00:41.821Z,54.52
2023-05-19T11:03:18.810Z,53.49
2023-05-19T11:05:46.459Z,53.27
2023-05-19T11:08:13.250Z,53.34
2023-05-19T11:10:39.909Z,52.93
2023-05-19T11:13:06.780Z,53.24
2023-05-19T11:15:37.319Z,52.79
2023-05-19T11:18:04.765Z,52.11
2023-05-19T11:20:35.269Z,53.15
2023-05-19T11:23:09.961Z,53.32
2023-05-19T11:25:44.707Z,53.02
2023-05-19T11:28:14.819Z,53.29
2023-05-19T11:30:43.697Z,53.31
2023-05-19T11:33:10.956Z,53.29
2023-05-19T11:35:38.740Z,53.69
2023-05-19T11:38:07.188Z,53.87
2023-05-19T11:40:33.824Z,55.27
2023-05-19T11:43:01.888Z,55.58
2023-05-19T11:45:31.448Z,55.76
2023-05-19T11:48:03.125Z,54.89
2023-05-19T11:50:31.869Z,54.38
2023-05-19T11:53:00.503Z,54.26
2023-05-19T11:55:27.610Z,53.92
2023-05-19T11:58:04.406Z,53.70
2023-05-19T12:00:40.100Z,54.26
2023-05-19T12:03:08.715Z,55.56
2023-05-19T12:05:44.900Z,56.40
2023-05-19T12:08:12.593Z,55.78
2023-05-19T12:10:40.234Z,54.56
2023-05-19T12:13:10.584Z,53.73
2023-05-19T12:15:38.752Z,53.13
2023-05-19T12:18:05.750Z,52.91
2023-05-19T12:20:35.370Z,53.20
2023-05-19T12:23:03.153Z,54.58
2023-05-19T12:25:31.293Z,54.76
2023-05-19T12:28:04.750Z,54.32
2023-05-19T12:30:33.163Z,54.51
2023-05-19T12:33:01.452Z,54.61
2023-05-19T12:35:29.601Z,54.23
2023-05-19T12:37:56.240Z,54.33
2023-05-19T12:40:22.936Z,54.25
2023-05-19T12:42:52.055Z,53.69
2023-05-19T12:45:22.288Z,53.36
2023-05-19T12:47:49.750Z,53.97
2023-05-19T12:50:16.397Z,53.68
2023-05-19T12:52:53.331Z,53.37
2023-05-19T12:55:21.071Z,54.05
2023-05-19T12:57:57.289Z,54.01
2023-05-19T13:00:28.260Z,54.34
2023-05-19T13:03:07.391Z,54.20
2023-05-19T13:05:39.788Z,54.22
2023-05-19T13:08:07.733Z,54.43
2023-05-19T13:10:35.585Z,54.70
2023-05-19T13:13:03.349Z,54.92
2023-05-19T13:15:32.116Z,54.46
2023-05-19T13:17:59.924Z,54.90
2023-05-19T13:20:28.501Z,54.68
2023-05-19T13:22:55.964Z,54.45
2023-05-19T13:25:22.708Z,53.79
2023-05-19T13:27:49.653Z,53.95
2023-05-19T13:30:16.360Z,54.01
2023-05-19T13:32:42.957Z,53.74
2023-05-19T13:35:10.895Z,53.90
2023-05-19T13:37:37.692Z,54.79
2023-05-19T13:40:04.992Z,54.65
2023-05-19T13:42:35.136Z,54.20
2023-05-19T13:45:02.553Z,54.44
2023-05-19T13:47:29.621Z,54.34
2023-05-19T13:49:56.650Z,54.64
2023-05-19T13:52:23.450Z,54.85
2023-05-19T13:54:50.015Z,54.70
2023-05-19T13:57:16.990Z,54.63
2023-05-19T13:59:57.640Z,54.42
2023-05-19T14:02:28.343Z,54.32
2023-05-19T14:04:55.936Z,53.89
2023-05-19T14:07:22.497Z,53.64
2023-05-19T14:09:51.078Z,54.08
2023-05-19T14:12:17.847Z,53.72
2023-05-19T14:14:44.813Z,53.29
2023-05-19T14:17:12.382Z,53.53
2023-05-19T14:19:38.953Z,53.10
2023-05-19T14:22:05.972Z,52.98
2023-05-19T14:24:32.625Z,52.47
2023-05-19T14:26:59.153Z,52.06
2023-05-19T14:29:25.790Z,51.94
2023-05-19T14:31:52.407Z,52.25
2023-05-19T14:34:21.153Z,52.86
2023-05-19T14:36:49.024Z,52.25
2023-05-19T14:39:15.762Z,52.04
2023-05-19T14:41:42.350Z,52.26
2023-05-19T14:44:08.882Z,52.61
2023-05-19T14:46:36.213Z,53.23
2023-05-19T14:49:03.549Z,53.48
2023-05-19T14:51:30.178Z,53.66
2023-05-19T14:53:56.776Z,53.75
2023-05-19T14:56:23.370Z,54.09
2023-05-19T14:58:49.965Z,54.17
2023-05-19T15:01:16.601Z,53.82
2023-05-19T15:03:43.279Z,54.07
2023-05-19T15:06:10.824Z,53.96
2023-05-19T15:08:37.880Z,54.08
2023-05-19T15:11:04.730Z,54.24
2023-05-19T15:13:31.437Z,54.00
2023-05-19T15:16:12.497Z,53.98
2023-05-19T15:18:42.698Z,54.02
2023-05-19T15:21:09.383Z,54.31
2023-05-19T15:23:36.173Z,54.09
2023-05-19T15:26:02.810Z,54.30
2023-05-19T15:28:29.517Z,54.17
2023-05-19T15:30:56.122Z,54.33
2023-05-19T15:33:22.645Z,54.46
2023-05-19T15:35:51.751Z,54.80
2023-05-19T15:38:19.484Z,55.28
2023-05-19T15:40:46.744Z,55.55
2023-05-19T15:43:13.547Z,55.94
2023-05-19T15:45:40.127Z,55.88
2023-05-19T15:48:06.903Z,55.64
2023-05-19T15:50:33.857Z,54.80
2023-05-19T15:53:00.675Z,54.70
2023-05-19T15:55:27.238Z,54.56
2023-05-19T15:57:53.791Z,54.41
2023-05-19T16:00:20.537Z,54.59
2023-05-19T16:02:47.317Z,55.35
2023-05-19T16:05:13.994Z,56.16
2023-05-19T16:07:42.082Z,57.02
2023-05-19T16:10:09.441Z,57.77
2023-05-19T16:12:36.982Z,57.99
2023-05-19T16:15:04.075Z,57.82
2023-05-19T16:17:30.716Z,58.69
2023-05-19T16:19:57.411Z,58.49
2023-05-19T16:22:24.958Z,57.72
2023-05-19T16:24:52.323Z,57.80
2023-05-19T16:27:19.213Z,58.41
2023-05-19T16:29:45.897Z,58.77
2023-05-19T16:32:12.929Z,58.97
2023-05-19T16:34:39.855Z,58.82
2023-05-19T16:37:06.529Z,59.00
2023-05-19T16:39:35.989Z,58.70
2023-05-19T16:42:03.372Z,58.94
2023-05-19T16:44:30.036Z,59.15
2023-05-19T16:46:56.564Z,59.66
2023-05-19T16:49:23.171Z,60.31
2023-05-19T16:51:50.089Z,60.50
2023-05-19T16:54:16.778Z,60.53
2023-05-19T16:56:43.335Z,60.46
2023-05-19T16:59:09.924Z,60.82
2023-05-19T17:01:36.567Z,61.08
2023-05-19T17:04:03.201Z,61.08
2023-05-19T17:06:29.760Z,61.38
2023-05-19T17:08:56.335Z,61.69
2023-05-19T17:11:22.979Z,61.88
2023-05-19T17:13:49.557Z,62.01
2023-05-19T17:16:16.326Z,62.17
2023-05-19T17:18:43.742Z,62.25
2023-05-19T17:21:10.718Z,62.01
2023-05-19T17:23:38.175Z,60.71
2023-05-19T17:26:04.982Z,59.94
2023-05-19T17:28:31.757Z,60.28
2023-05-19T17:30:58.466Z,61.22
2023-05-19T17:33:25.191Z,61.64
2023-05-19T17:35:51.772Z,62.33
2023-05-19T17:38:18.353Z,62.78
2023-05-19T17:40:44.989Z,63.22
2023-05-19T17:43:11.586Z,63.33
2023-05-19T17:45:38.128Z,63.45
2023-05-19T17:48:05.302Z,63.90
2023-05-19T17:50:32.286Z,63.81
2023-05-19T17:52:59.298Z,63.97
2023-05-19T17:55:29.942Z,64.16
2023-05-19T17:57:57.444Z,64.16
2023-05-19T18:00:25.303Z,64.51
2023-05-19T18:02:52.803Z,64.84
2023-05-19T18:05:19.976Z,65.06
2023-05-19T18:07:47.489Z,65.79
2023-05-19T18:10:15.234Z,66.07
2023-05-19T18:12:41.893Z,65.81
2023-05-19T18:15:08.736Z,66.41
2023-05-19T18:17:35.560Z,66.71
2023-05-19T18:20:02.389Z,67.15
2023-05-19T18:22:29.008Z,67.54
2023-05-19T18:24:56.246Z,67.83
2023-05-19T18:27:22.801Z,68.67
2023-05-19T18:29:49.382Z,68.81
2023-05-19T18:32:17.691Z,69.56
2023-05-19T18:34:44.394Z,70.09
2023-05-19T18:37:10.949Z,70.67
2023-05-19T18:39:37.545Z,70.82
2023-05-19T18:42:04.328Z,71.16
2023-05-19T18:44:31.102Z,71.45
2023-05-19T18:46:57.660Z,71.28
2023-05-19T18:49:25.096Z,71.48
2023-05-19T18:51:52.005Z,71.99
2023-05-19T18:54:20.347Z,72.01
2023-05-19T18:56:46.943Z,72.21
2023-05-19T18:59:13.626Z,72.38
2023-05-19T19:01:40.403Z,72.25
2023-05-19T19:04:07.013Z,72.43
2023-05-19T19:06:33.753Z,73.32
2023-05-19T19:09:00.584Z,73.24
2023-05-19T19:11:27.713Z,73.00
2023-05-19T19:13:56.359Z,73.70
2023-05-19T19:16:23.186Z,73.53
2023-05-19T19:18:49.834Z,73.67
2023-05-19T19:21:16.515Z,73.83
2023-05-19T19:23:43.143Z,74.11
2023-05-19T19:26:09.849Z,74.25
2023-05-19T19:28:36.580Z,74.26
2023-05-19T19:31:03.359Z,74.76
2023-05-19T19:33:29.928Z,75.73
2023-05-19T19:35:56.557Z,75.80
2023-05-19T19:38:23.199Z,76.11
2023-05-19T19:40:52.274Z,76.89
2023-05-19T19:43:19.068Z,76.70
2023-05-19T19:45:45.700Z,76.74
2023-05-19T19:48:12.501Z,76.89
2023-05-19T19:50:39.074Z,76.97
2023-05-19T19:53:05.691Z,77.06
2023-05-19T19:55:32.409Z,77.00
2023-05-19T19:57:58.980Z,77.01
2023-05-19T20:00:25.626Z,77.54
2023-05-19T20:03:04.273Z,77.55
2023-05-19T20:05:31.962Z,77.11
2023-05-19T20:07:58.538Z,77.62
2023-05-19T20:10:25.172Z,77.50
2023-05-19T20:12:51.999Z,77.28
2023-05-19T20:15:18.749Z,77.56
2023-05-19T20:17:45.904Z,77.24
2023-05-19T20:20:13.087Z,77.82
2023-05-19T20:22:39.683Z,78.46
2023-05-19T20:25:06.610Z,78.71
2023-05-19T20:27:33.236Z,78.82
2023-05-19T20:29:59.871Z,79.68
2023-05-19T20:32:26.559Z,79.63
2023-05-19T20:34:53.182Z,79.68
2023-05-19T20:37:21.002Z,79.67
2023-05-19T20:39:47.802Z,79.64
2023-05-19T20:42:14.370Z,80.24
2023-05-19T20:44:41.548Z,80.50
2023-05-19T20:47:08.532Z,82.05
2023-05-19T20:49:35.245Z,81.62
2023-05-19T20:52:02.055Z,82.20
2023-05-19T20:54:28.614Z,81.62
2023-05-19T20:56:55.210Z,83.23
2023-05-19T20:59:21.996Z,82.40
2023-05-19T21:01:48.633Z,83.23
2023-05-19T21:04:15.345Z,83.41
2023-05-19T21:06:41.959Z,84.52
2023-05-19T21:09:08.785Z,85.88
2023-05-19T21:11:35.595Z,86.32
2023-05-19T21:14:04.281Z,86.34
2023-05-19T21:16:31.541Z,86.73
2023-05-19T21:18:58.327Z,86.66
2023-05-19T21:21:25.331Z,85.76
2023-05-19T21:23:52.195Z,87.76
2023-05-19T21:26:18.803Z,87.43
2023-05-19T21:28:45.507Z,87.80
2023-05-19T21:31:12.396Z,88.13
2023-05-19T21:33:39.058Z,89.30
2023-05-19T21:36:05.952Z,88.27
2023-05-19T21:38:32.500Z,87.42
2023-05-19T21:40:59.105Z,86.46
2023-05-19T21:43:25.986Z,86.57
2023-05-19T21:45:52.595Z,88.75
2023-05-19T21:48:19.288Z,89.63
2023-05-19T21:50:45.905Z,89.86
2023-05-19T21:53:12.612Z,90.33
2023-05-19T21:55:39.409Z,90.23
2023-05-19T21:58:06.119Z,90.54
2023-05-19T22:00:33.029Z,90.93
2023-05-19T22:02:59.872Z,91.46
2023-05-19T22:05:27.004Z,90.97
2023-05-19T22:07:53.656Z,91.00
2023-05-19T22:10:20.325Z,90.11
2023-05-19T22:12:47.267Z,89.81
2023-05-19T22:15:14.536Z,88.41
2023-05-19T22:17:41.914Z,88.30
2023-05-19T22:20:09.477Z,88.02
2023-05-19T22:22:36.298Z,88.56
2023-05-19T22:25:03.866Z,88.21
2023-05-19T22:27:30.695Z,88.03
2023-05-19T22:29:57.382Z,87.75
2023-05-19T22:32:24.401Z,88.10
2023-05-19T22:34:51.201Z,87.70
2023-05-19T22:37:17.761Z,88.35
2023-05-19T22:39:44.523Z,88.82
2023-05-19T22:42:11.115Z,88.72
2023-05-19T22:44:37.660Z,89.33
2023-05-19T22:47:04.426Z,89.54
2023-05-19T22:49:31.025Z,89.88
2023-05-19T22:51:57.599Z,89.38
2023-05-19T22:54:24.174Z,89.73
2023-05-19T22:56:50.830Z,89.97
2023-05-19T22:59:18.032Z,89.84
2023-05-19T23:01:46.715Z,89.01
2023-05-19T23:04:14.146Z,88.42
2023-05-19T23:06:41.626Z,88.42
2023-05-19T23:09:08.203Z,88.92
2023-05-19T23:11:35.927Z,87.98
2023-05-19T23:14:02.601Z,87.63
2023-05-19T23:16:29.251Z,87.26
2023-05-19T23:18:55.909Z,87.30
2023-05-19T23:21:22.552Z,87.12
2023-05-19T23:23:49.855Z,87.57
2023-05-19T23:26:16.501Z,87.42
2023-05-19T23:28:43.313Z,87.43
2023-05-19T23:31:10.361Z,86.49
2023-05-19T23:33:37.005Z,86.67
2023-05-19T23:36:08.309Z,85.71
2023-05-19T23:38:35.989Z,86.15
2023-05-19T23:41:02.974Z,86.32
2023-05-19T23:43:29.599Z,86.17
2023-05-19T23:45:56.230Z,86.49
2023-05-19T23:48:22.797Z,86.97
2023-05-19T23:50:49.424Z,86.61
2023-05-19T23:53:15.990Z,87.37
2023-05-19T23:55:42.675Z,87.99
2023-05-19T23:58:09.301Z,87.79
